Time,TemperatureF,DewpointF,PressureIn,WindDirection,WindDirectionDegrees,WindSpeedMPH,WindSpeedGustMPH,Humidity,HourlyPrecipIn,Conditions,Clouds,dailyrainin,SoftwareType,DateUTC
2017-03-24 00:27:00,27.0,8.0,30.48,ESE,103,0.0,0.0,44,-99.99,,,-99.99,,2017-03-24 04:27:00,
2017-03-24 01:09:00,27.0,12.0,30.47,SE,142,0.0,1.0,52,-99.99,,,-99.99,,2017-03-24 05:09:00,
2017-03-24 02:09:00,27.0,13.0,30.45,SSE,158,0.0,1.0,54,-99.99,,,-99.99,,2017-03-24 06:09:00,
2017-03-24 02:57:00,28.0,13.0,30.44,SSE,153,0.0,1.0,52,-99.99,,,-99.99,,2017-03-24 06:57:00,
2017-03-24 03:28:00,28.0,13.0,30.42,ESE,118,0.0,2.0,53,-99.99,,,-99.99,,2017-03-24 07:28:00,
2017-03-24 03:48:00,28.0,11.0,30.40,SSE,148,0.0,2.0,48,-99.99,,,-99.99,,2017-03-24 07:48:00,
2017-03-24 04:10:00,29.0,11.0,30.38,SE,145,0.0,3.0,46,-99.99,,,-99.99,,2017-03-24 08:10:00,
2017-03-24 04:48:00,30.0,11.0,30.37,SSE,158,1.0,4.0,45,-99.99,,,-99.99,,2017-03-24 08:48:00,
2017-03-24 05:10:00,29.0,10.0,30.37,SE,139,1.0,7.0,45,-99.99,,,-99.99,,2017-03-24 09:10:00,
2017-03-24 05:27:00,30.0,11.0,30.36,SE,128,0.0,8.0,45,-99.99,,,-99.99,,2017-03-24 09:27:00,
2017-03-24 06:28:00,30.0,12.0,30.35,SSE,155,1.0,4.0,47,-99.99,,,-99.99,,2017-03-24 10:28:00,
2017-03-24 06:50:00,30.0,12.0,30.34,SW,219,1.0,4.0,46,-99.99,,,-99.99,,2017-03-24 10:50:00,
2017-03-24 08:09:00,33.0,12.0,30.32,West,281,1.0,5.0,41,-99.99,,,-99.99,,2017-03-24 12:09:00,
2017-03-24 08:59:00,35.0,15.0,30.27,SSE,149,3.0,11.0,43,-99.99,,,-99.99,,2017-03-24 12:59:00,
2017-03-24 09:39:00,35.0,15.0,30.28,SSE,168,3.0,12.0,44,-99.99,,,-99.99,,2017-03-24 13:39:00,
2017-03-24 10:10:00,35.0,15.0,30.27,SSE,160,4.0,11.0,44,-99.99,,,-99.99,,2017-03-24 14:10:00,
2017-03-24 10:28:00,35.0,15.0,30.27,SSE,160,3.0,-999.0,44,-99.99,,,-99.99,,2017-03-24 14:28:00,
2017-03-24 10:58:00,35.0,16.0,30.26,SSE,156,2.0,-999.0,46,-99.99,,,-99.99,,2017-03-24 14:58:00,
2017-03-24 11:18:00,33.0,21.0,30.26,SSE,156,3.0,-999.0,62,-99.99,,,-99.99,,2017-03-24 15:18:00,
2017-03-24 13:30:00,34.0,25.0,30.14,SSE,158,3.0,9.0,70,-99.99,,,-99.99,,2017-03-24 17:30:00,
2017-03-24 14:48:00,37.0,29.0,30.09,SE,144,3.0,11.0,74,-99.99,,,-99.99,,2017-03-24 18:48:00,
2017-03-24 15:10:00,37.0,30.0,30.07,SE,135,3.0,9.0,75,-99.99,,,-99.99,,2017-03-24 19:10:00,
2017-03-24 18:28:00,39.0,33.0,30.00,SE,145,3.0,-999.0,78,-99.99,,,-99.99,,2017-03-24 22:28:00,
2017-03-24 19:09:00,39.0,33.0,29.99,SSE,152,2.0,4.0,80,-99.99,,,-99.99,,2017-03-24 23:09:00,
2017-03-24 20:28:00,40.0,34.0,30.00,SSE,149,1.0,8.0,80,-99.99,,,-99.99,,2017-03-25 00:28:00,
2017-03-24 21:10:00,40.0,34.0,30.01,SSE,149,2.0,8.0,79,-99.99,,,-99.99,,2017-03-25 01:10:00,
2017-03-24 21:28:00,41.0,35.0,30.03,SSE,155,1.0,-999.0,79,-99.99,,,-99.99,,2017-03-25 01:28:00,